createdAt,value
2019-05-07T01:33:48.854Z,0.00
2019-05-07T01:34:48.753Z,0.00
2019-05-07T01:36:42.698Z,0.00
2019-05-07T01:37:42.203Z,0.00
2019-05-07T01:39:45.210Z,0.00
2019-05-07T01:40:45.115Z,0.00
2019-05-07T01:42:48.910Z,0.00
2019-05-07T01:43:48.820Z,0.00
2019-05-07T01:45:53.076Z,0.00
2019-05-07T01:46:53.041Z,0.00
2019-05-07T01:48:57.562Z,0.00
2019-05-07T01:49:56.239Z,0.00
2019-05-07T01:50:56.154Z,0.00
2019-05-07T01:51:56.065Z,0.00
2019-05-07T01:52:55.980Z,0.00
2019-05-07T01:53:55.899Z,0.00
2019-05-07T01:54:55.809Z,0.00
2019-05-07T01:55:55.723Z,0.00
2019-05-07T01:56:55.641Z,0.00
2019-05-07T01:57:55.554Z,0.00
2019-05-07T01:58:55.468Z,0.00
2019-05-07T01:59:55.381Z,0.00
2019-05-07T02:00:55.301Z,0.00
2019-05-07T02:01:55.212Z,0.00
2019-05-07T02:02:55.124Z,0.00
2019-05-07T02:03:55.037Z,0.00
2019-05-07T02:04:54.956Z,0.00
2019-05-07T02:05:54.869Z,0.00
2019-05-07T02:06:54.797Z,0.00
2019-05-07T02:07:54.703Z,0.00
2019-05-07T02:08:54.611Z,0.00
2019-05-07T02:09:54.524Z,0.00
2019-05-07T02:10:54.444Z,0.00
2019-05-07T02:11:54.355Z,0.00
2019-05-07T02:12:54.268Z,0.00
2019-05-07T02:13:54.181Z,0.00
2019-05-07T02:14:54.096Z,0.00
2019-05-07T02:16:00.787Z,0.00
2019-05-07T02:17:03.003Z,0.00
2019-05-07T02:18:58.237Z,0.00
2019-05-07T02:19:58.122Z,0.00
2019-05-07T02:22:02.934Z,0.00
2019-05-07T02:23:02.925Z,0.00
2019-05-07T02:25:06.672Z,0.00
2019-05-07T02:26:06.571Z,0.00
2019-05-07T02:28:02.013Z,0.00
2019-05-07T02:28:59.703Z,0.00
2019-05-07T02:31:04.284Z,0.00
2019-05-07T02:32:04.934Z,0.00
2019-05-07T02:33:04.022Z,0.00
2019-05-07T02:34:03.743Z,0.00
2019-05-07T02:35:04.220Z,0.00
2019-05-07T02:36:03.570Z,0.00
2019-05-07T02:37:04.229Z,0.00
2019-05-07T02:38:03.441Z,0.00
2019-05-07T02:39:12.929Z,0.00
2019-05-07T02:41:07.218Z,0.00
2019-05-07T02:42:07.116Z,0.00
2019-05-07T02:44:13.348Z,0.00
2019-05-07T02:45:13.322Z,0.00
2019-05-07T02:46:25.563Z,0.00
2019-05-07T02:47:12.877Z,0.00
2019-05-07T02:48:12.900Z,0.00
2019-05-07T02:49:10.487Z,0.00
2019-05-07T02:50:12.908Z,0.00
2019-05-07T02:51:13.220Z,0.00
2019-05-07T02:52:13.226Z,0.00
2019-05-07T02:53:13.110Z,0.00
2019-05-07T02:54:13.187Z,0.00
2019-05-07T02:55:09.972Z,0.00
2019-05-07T02:56:12.763Z,0.00
2019-05-07T02:57:13.248Z,0.00
2019-05-07T02:58:09.713Z,0.00
2019-05-07T02:59:09.632Z,0.00
2019-05-07T03:00:09.541Z,0.00
2019-05-07T03:01:09.466Z,0.00
2019-05-07T03:02:09.371Z,0.00
2019-05-07T03:03:09.286Z,0.00
2019-05-07T03:04:09.202Z,0.00
2019-05-07T03:05:09.117Z,0.00
2019-05-07T03:06:09.027Z,0.00
2019-05-07T03:07:08.943Z,0.00
2019-05-07T03:08:08.855Z,0.00
2019-05-07T03:09:08.770Z,0.00
2019-05-07T03:10:08.686Z,0.00
2019-05-07T03:11:08.597Z,0.00
2019-05-07T03:12:08.509Z,0.00
2019-05-07T03:13:08.421Z,0.00
2019-05-07T03:14:08.338Z,4.00
2019-05-07T03:15:08.256Z,4.00
2019-05-07T03:16:08.167Z,0.00
2019-05-07T03:17:08.082Z,4.00
2019-05-07T03:18:07.996Z,4.00
2019-05-07T03:19:07.905Z,4.00
2019-05-07T03:20:07.818Z,4.00
2019-05-07T03:21:07.736Z,4.00
2019-05-07T03:22:07.645Z,8.00
2019-05-07T03:23:07.561Z,8.00
2019-05-07T03:24:07.502Z,8.00
2019-05-07T03:25:07.389Z,8.00
2019-05-07T03:26:07.300Z,12.00
2019-05-07T03:27:07.220Z,16.00
2019-05-07T03:28:07.130Z,16.00
2019-05-07T03:29:07.041Z,20.00
2019-05-07T03:30:06.968Z,20.00
2019-05-07T03:31:06.881Z,24.00
2019-05-07T03:32:06.784Z,28.00
2019-05-07T03:33:07.605Z,32.00
2019-05-07T03:34:07.450Z,36.00
2019-05-07T03:35:07.601Z,44.00
2019-05-07T03:36:07.764Z,44.00
2019-05-07T03:37:06.791Z,52.00
2019-05-07T03:38:06.283Z,56.00
2019-05-07T03:39:06.175Z,64.00
2019-05-07T03:40:06.091Z,68.00
2019-05-07T03:41:06.004Z,76.00
2019-05-07T03:42:05.915Z,84.00
2019-05-07T03:43:06.485Z,96.00
2019-05-07T03:44:05.745Z,104.00
2019-05-07T03:45:05.666Z,112.00
2019-05-07T03:46:05.580Z,124.00
2019-05-07T03:47:06.424Z,132.00
2019-05-07T03:48:05.403Z,144.00
2019-05-07T03:49:05.323Z,156.00
2019-05-07T03:50:05.229Z,164.00
2019-05-07T03:51:05.146Z,176.00
2019-05-07T03:52:05.055Z,184.00
2019-05-07T03:53:04.972Z,196.00
2019-05-07T03:54:04.880Z,208.00
2019-05-07T03:55:04.794Z,220.00
2019-05-07T03:56:04.764Z,232.00
2019-05-07T03:57:10.677Z,248.00
2019-05-07T03:58:04.531Z,260.00
2019-05-07T03:59:04.446Z,276.00
2019-05-07T04:00:04.525Z,292.00
2019-05-07T04:01:04.770Z,312.00
2019-05-07T04:02:04.194Z,328.00
2019-05-07T04:03:04.108Z,340.00
2019-05-07T04:04:04.013Z,352.00
2019-05-07T04:05:04.474Z,368.00
2019-05-07T04:06:04.185Z,380.00
2019-05-07T04:07:03.825Z,396.00
2019-05-07T04:08:03.730Z,412.00
2019-05-07T04:09:03.607Z,428.00
2019-05-07T04:10:04.501Z,444.00
2019-05-07T04:11:04.025Z,464.00
2019-05-07T04:12:04.185Z,484.00
2019-05-07T04:13:04.459Z,508.00
2019-05-07T04:14:03.159Z,532.00
2019-05-07T04:15:03.451Z,556.00
2019-05-07T04:16:04.017Z,580.00
2019-05-07T04:17:14.403Z,604.00
2019-05-07T04:18:03.841Z,624.00
2019-05-07T04:19:03.858Z,648.00
2019-05-07T04:20:04.435Z,672.00
2019-05-07T04:21:03.769Z,684.00
2019-05-07T04:22:04.314Z,696.00
2019-05-07T04:23:04.385Z,712.00
2019-05-07T04:24:03.535Z,728.00
2019-05-07T04:25:04.446Z,752.00
2019-05-07T04:26:04.257Z,784.00
2019-05-07T04:27:03.677Z,812.00
2019-05-07T04:28:03.843Z,824.00
2019-05-07T04:29:05.563Z,828.00
2019-05-07T04:30:03.693Z,824.00
2019-05-07T04:31:02.905Z,832.00
2019-05-07T04:32:03.214Z,836.00
2019-05-07T04:33:03.416Z,840.00
2019-05-07T04:34:03.669Z,852.00
2019-05-07T04:35:03.993Z,852.00
2019-05-07T04:36:02.921Z,864.00
2019-05-07T04:37:03.288Z,888.00
2019-05-07T04:38:03.384Z,904.00
2019-05-07T04:39:02.966Z,916.00
2019-05-07T04:40:03.200Z,928.00
2019-05-07T04:41:03.709Z,940.00
2019-05-07T04:42:03.433Z,972.00
2019-05-07T04:43:02.772Z,984.00
2019-05-07T04:44:03.394Z,1000.00
2019-05-07T04:45:03.909Z,1024.00
2019-05-07T04:46:03.211Z,1040.00
2019-05-07T04:47:00.311Z,1056.00
2019-05-07T04:48:02.853Z,1088.00
2019-05-07T04:49:00.141Z,1132.00
2019-05-07T04:50:03.537Z,1160.00
2019-05-07T04:50:59.970Z,1184.00
2019-05-07T04:51:59.887Z,1224.00
2019-05-07T04:53:02.569Z,1228.00
2019-05-07T04:53:59.714Z,1208.00
2019-05-07T04:54:59.626Z,1232.00
2019-05-07T04:55:59.543Z,1232.00
2019-05-07T04:56:59.456Z,1216.00
2019-05-07T04:57:59.371Z,1216.00
2019-05-07T04:58:59.280Z,1220.00
2019-05-07T04:59:59.198Z,1220.00
2019-05-07T05:00:59.111Z,1248.00
2019-05-07T05:01:59.046Z,1260.00
2019-05-07T05:02:58.942Z,1260.00
2019-05-07T05:03:58.874Z,1268.00
2019-05-07T05:04:58.772Z,1268.00
2019-05-07T05:05:58.688Z,1280.00
2019-05-07T05:06:58.599Z,1336.00
2019-05-07T05:07:58.530Z,1356.00
2019-05-07T05:08:58.443Z,1372.00
2019-05-07T05:09:58.348Z,1380.00
2019-05-07T05:10:58.275Z,1368.00
2019-05-07T05:11:58.171Z,1376.00
2019-05-07T05:12:58.086Z,1384.00
2019-05-07T05:13:58.011Z,1404.00
2019-05-07T05:14:57.912Z,1420.00
2019-05-07T05:15:57.826Z,1424.00
2019-05-07T05:16:57.740Z,1428.00
2019-05-07T05:17:57.669Z,1440.00
2019-05-07T05:18:57.572Z,1448.00
2019-05-07T05:20:00.392Z,1464.00
2019-05-07T05:20:57.403Z,1480.00
2019-05-07T05:21:57.320Z,1496.00
2019-05-07T05:22:57.228Z,1528.00
2019-05-07T05:23:57.148Z,1544.00
2019-05-07T05:24:57.061Z,1560.00
2019-05-07T05:25:56.973Z,1540.00
2019-05-07T05:26:56.887Z,1556.00
2019-05-07T05:27:56.802Z,1596.00
2019-05-07T05:28:56.717Z,1612.00
2019-05-07T05:29:56.635Z,1624.00
2019-05-07T05:30:56.547Z,1620.00
2019-05-07T05:31:56.463Z,1616.00
2019-05-07T05:32:56.378Z,1608.00
2019-05-07T05:33:56.292Z,1608.00
2019-05-07T05:34:56.207Z,1632.00
2019-05-07T05:35:56.119Z,1624.00
2019-05-07T05:36:56.036Z,1624.00
2019-05-07T05:37:55.951Z,1640.00
2019-05-07T05:38:55.862Z,1644.00
2019-05-07T05:40:05.637Z,1636.00
2019-05-07T05:40:55.699Z,1660.00
2019-05-07T05:41:55.611Z,1648.00
2019-05-07T05:42:55.523Z,1656.00
2019-05-07T05:43:55.441Z,1664.00
2019-05-07T05:44:55.378Z,1684.00
2019-05-07T05:45:55.267Z,1668.00
2019-05-07T05:46:55.184Z,1664.00
2019-05-07T05:48:04.758Z,1668.00
2019-05-07T05:48:55.055Z,1680.00
2019-05-07T05:49:54.934Z,1704.00
2019-05-07T05:50:54.860Z,1696.00
2019-05-07T05:51:54.761Z,1704.00
2019-05-07T05:52:54.678Z,1712.00
2019-05-07T05:53:54.590Z,1712.00
2019-05-07T05:54:54.505Z,1736.00
2019-05-07T05:55:54.421Z,1752.00
2019-05-07T05:56:54.343Z,1728.00
2019-05-07T05:57:54.253Z,1736.00
2019-05-07T05:58:54.166Z,1744.00
2019-05-07T05:59:55.409Z,1760.00
2019-05-07T06:00:53.999Z,1764.00
2019-05-07T06:01:53.914Z,1764.00
2019-05-07T06:02:53.826Z,1780.00
2019-05-07T06:03:53.742Z,1820.00
2019-05-07T06:04:53.658Z,1824.00
2019-05-07T06:05:53.573Z,1780.00
2019-05-07T06:07:07.690Z,1776.00
2019-05-07T06:07:53.402Z,1764.00
2019-05-07T06:08:53.321Z,1768.00
2019-05-07T06:09:53.234Z,1780.00
2019-05-07T06:10:53.149Z,1772.00
2019-05-07T06:11:53.067Z,1788.00
2019-05-07T06:12:52.981Z,1764.00
2019-05-07T06:13:52.902Z,1788.00
2019-05-07T06:14:53.949Z,1812.00
2019-05-07T06:15:52.727Z,1816.00
2019-05-07T06:16:52.729Z,1828.00
2019-05-07T06:17:52.560Z,1828.00
2019-05-07T06:18:52.629Z,1836.00
2019-05-07T06:19:52.394Z,1848.00
2019-05-07T06:20:52.365Z,1860.00
2019-05-07T06:21:52.694Z,1860.00
2019-05-07T06:22:52.857Z,1868.00
2019-05-07T06:23:52.819Z,1872.00
2019-05-07T06:24:52.186Z,1880.00
2019-05-07T06:25:52.457Z,1896.00
2019-05-07T06:26:52.248Z,1904.00
2019-05-07T06:27:52.624Z,1908.00
2019-05-07T06:28:51.974Z,1912.00
2019-05-07T06:29:52.391Z,1920.00
2019-05-07T06:30:52.814Z,1924.00
2019-05-07T06:31:52.834Z,1940.00
2019-05-07T06:32:52.266Z,1952.00
2019-05-07T06:33:52.326Z,1944.00
2019-05-07T06:34:52.353Z,1952.00
2019-05-07T06:35:52.041Z,1960.00
2019-05-07T06:36:52.679Z,1964.00
2019-05-07T06:37:52.197Z,1980.00
2019-05-07T06:38:53.042Z,1980.00
2019-05-07T06:39:52.868Z,2000.00
2019-05-07T06:40:51.899Z,2008.00
2019-05-07T06:41:52.516Z,2008.00
2019-05-07T06:42:52.327Z,2040.00
2019-05-07T06:43:52.135Z,2064.00
2019-05-07T06:44:51.882Z,2088.00
2019-05-07T06:45:51.865Z,2096.00
2019-05-07T06:46:52.486Z,2092.00
2019-05-07T06:47:52.031Z,2104.00
2019-05-07T06:48:49.952Z,2112.00
2019-05-07T06:49:49.868Z,2136.00
2019-05-07T06:50:49.782Z,2156.00
2019-05-07T06:51:49.699Z,2172.00
2019-05-07T06:52:51.788Z,2188.00
2019-05-07T06:53:51.725Z,2188.00
2019-05-07T06:54:49.448Z,2188.00
2019-05-07T06:55:49.363Z,2176.00
2019-05-07T06:56:49.280Z,2172.00
2019-05-07T06:57:49.196Z,2168.00
2019-05-07T06:58:49.112Z,2152.00
2019-05-07T06:59:49.025Z,2184.00
2019-05-07T07:00:48.943Z,2192.00
2019-05-07T07:01:48.859Z,2192.00
2019-05-07T07:02:48.778Z,2192.00
2019-05-07T07:03:48.699Z,2212.00
2019-05-07T07:04:48.610Z,2212.00
2019-05-07T07:05:48.527Z,2212.00
2019-05-07T07:06:48.444Z,2216.00
2019-05-07T07:07:48.362Z,2212.00
2019-05-07T07:08:48.277Z,2196.00
2019-05-07T07:09:48.189Z,2200.00
2019-05-07T07:10:48.108Z,2184.00
2019-05-07T07:11:48.060Z,2192.00
2019-05-07T07:12:47.941Z,2208.00
2019-05-07T07:13:47.858Z,2212.00
2019-05-07T07:14:47.776Z,2204.00
2019-05-07T07:15:47.691Z,2188.00
2019-05-07T07:16:47.613Z,2192.00
2019-05-07T07:17:47.528Z,2208.00
2019-05-07T07:18:52.019Z,2224.00
2019-05-07T07:19:47.357Z,2224.00
2019-05-07T07:20:48.700Z,2228.00
2019-05-07T07:21:47.188Z,2240.00
2019-05-07T07:22:47.108Z,2232.00
2019-05-07T07:23:47.024Z,2232.00
2019-05-07T07:24:46.942Z,2248.00
2019-05-07T07:25:46.858Z,2288.00
2019-05-07T07:26:46.774Z,2284.00
2019-05-07T07:27:46.794Z,2304.00
2019-05-07T07:28:46.608Z,2340.00
2019-05-07T07:29:46.526Z,2360.00
2019-05-07T07:30:46.442Z,2328.00
2019-05-07T07:31:46.353Z,2396.00
2019-05-07T07:32:46.272Z,2424.00
2019-05-07T07:33:46.193Z,2436.00
2019-05-07T07:34:46.109Z,2448.00
2019-05-07T07:35:46.023Z,2476.00
2019-05-07T07:36:45.940Z,2520.00
2019-05-07T07:37:45.859Z,2528.00
2019-05-07T07:38:45.776Z,2556.00
2019-05-07T07:39:45.695Z,2580.00
2019-05-07T07:40:45.611Z,2604.00
2019-05-07T07:41:45.529Z,2620.00
2019-05-07T07:42:45.444Z,2652.00
2019-05-07T07:43:45.364Z,2672.00
2019-05-07T07:44:45.275Z,2532.00
2019-05-07T07:45:45.197Z,2648.00
2019-05-07T07:46:45.116Z,2696.00
2019-05-07T07:47:45.044Z,2792.00
2019-05-07T07:48:44.947Z,2824.00
2019-05-07T07:49:44.864Z,2932.00
2019-05-07T07:50:44.782Z,2960.00
2019-05-07T07:51:45.857Z,2996.00
2019-05-07T07:52:44.615Z,3040.00
2019-05-07T07:53:44.532Z,3064.00
2019-05-07T07:54:44.450Z,3100.00
2019-05-07T07:55:44.369Z,3124.00
2019-05-07T07:56:52.354Z,3140.00
2019-05-07T07:57:44.199Z,3192.00
2019-05-07T07:58:44.118Z,3320.00
2019-05-07T07:59:44.048Z,3412.00
2019-05-07T08:00:43.954Z,3336.00
2019-05-07T08:01:43.872Z,3236.00
2019-05-07T08:02:43.788Z,3196.00
2019-05-07T08:03:43.708Z,3192.00
2019-05-07T08:04:43.634Z,3164.00
2019-05-07T08:05:43.546Z,3328.00
2019-05-07T08:06:43.462Z,3492.00
2019-05-07T08:07:43.404Z,3580.00
2019-05-07T08:08:43.292Z,3484.00
2019-05-07T08:09:43.217Z,3504.00
2019-05-07T08:10:43.127Z,3576.00
2019-05-07T08:11:43.049Z,3624.00
2019-05-07T08:12:42.967Z,3572.00
2019-05-07T08:13:42.879Z,3740.00
2019-05-07T08:14:42.957Z,3720.00
2019-05-07T08:15:43.006Z,3860.00
2019-05-07T08:16:43.090Z,3964.00
2019-05-07T08:17:42.556Z,4028.00
2019-05-07T08:18:43.599Z,4192.00
2019-05-07T08:19:43.040Z,4456.00
2019-05-07T08:20:43.045Z,4836.00
2019-05-07T08:21:42.297Z,5100.00
2019-05-07T08:22:42.449Z,5696.00
2019-05-07T08:23:42.456Z,6120.00
2019-05-07T08:24:42.675Z,6304.00
2019-05-07T08:25:42.626Z,6392.00
2019-05-07T08:26:42.856Z,6192.00
2019-05-07T08:27:42.070Z,5900.00
2019-05-07T08:28:41.974Z,5364.00
2019-05-07T08:29:42.993Z,4988.00
2019-05-07T08:30:42.027Z,4956.00
2019-05-07T08:31:42.478Z,4912.00
2019-05-07T08:32:42.528Z,4896.00
2019-05-07T08:33:42.591Z,4788.00
2019-05-07T08:34:42.831Z,4536.00
2019-05-07T08:35:41.921Z,4316.00
2019-05-07T08:36:42.098Z,4304.00
2019-05-07T08:37:42.697Z,4316.00
2019-05-07T08:38:42.591Z,4348.00
2019-05-07T08:39:42.746Z,4516.00
2019-05-07T08:40:41.841Z,4608.00
2019-05-07T08:41:42.318Z,4924.00
2019-05-07T08:46:54.282Z,6060.00
2019-05-07T08:47:54.187Z,6360.00
2019-05-07T08:49:58.009Z,6612.00
2019-05-07T08:50:57.915Z,6576.00
2019-05-07T08:53:02.764Z,6328.00
2019-05-07T08:54:02.615Z,5956.00
2019-05-07T08:55:54.385Z,5512.00
2019-05-07T08:56:54.300Z,5392.00
2019-05-07T08:57:54.237Z,5260.00
2019-05-07T08:58:54.136Z,5216.00
2019-05-07T09:00:00.485Z,5272.00
2019-05-07T09:00:53.974Z,5324.00
2019-05-07T09:01:53.891Z,5496.00
2019-05-07T09:02:53.810Z,5480.00
2019-05-07T09:03:53.732Z,5420.00
2019-05-07T09:04:53.651Z,5196.00
2019-05-07T09:05:53.583Z,4888.00
2019-05-07T09:06:53.493Z,4628.00
2019-05-07T09:07:53.409Z,4528.00
2019-05-07T09:08:53.327Z,4560.00
2019-05-07T09:09:53.244Z,4520.00
2019-05-07T09:10:53.351Z,4544.00
2019-05-07T09:11:53.082Z,4556.00
2019-05-07T09:12:53.004Z,4624.00
2019-05-07T09:13:52.920Z,4756.00
2019-05-07T09:14:53.102Z,4832.00
2019-05-07T09:15:52.943Z,4888.00
2019-05-07T09:16:52.812Z,4968.00
2019-05-07T09:17:52.779Z,5092.00
2019-05-07T09:18:52.790Z,5088.00
2019-05-07T09:19:54.902Z,5084.00
2019-05-07T09:20:52.766Z,5088.00
2019-05-07T09:21:52.770Z,5104.00
2019-05-07T09:22:52.196Z,5220.00
2019-05-07T09:23:52.361Z,5384.00
2019-05-07T09:24:52.741Z,5548.00
2019-05-07T09:25:52.321Z,5676.00
2019-05-07T09:26:52.397Z,5708.00
2019-05-07T09:27:52.362Z,5804.00
2019-05-07T09:28:52.394Z,6040.00
2019-05-07T09:29:52.068Z,6380.00
2019-05-07T09:30:52.407Z,6708.00
2019-05-07T09:31:52.570Z,6984.00
2019-05-07T09:32:52.209Z,7164.00
2019-05-07T09:33:52.199Z,7288.00
2019-05-07T09:34:52.062Z,7324.00
2019-05-07T09:35:52.828Z,7488.00
2019-05-07T09:36:51.870Z,7560.00
2019-05-07T09:37:52.733Z,7336.00
2019-05-07T09:38:56.810Z,7224.00
2019-05-07T09:39:51.882Z,7144.00
2019-05-07T09:40:52.482Z,7092.00
2019-05-07T09:41:52.631Z,7196.00
2019-05-07T09:42:52.606Z,7204.00
2019-05-07T09:43:51.843Z,6800.00
2019-05-07T09:44:50.419Z,6600.00
2019-05-07T09:45:52.200Z,6624.00
2019-05-07T09:46:51.950Z,6588.00
2019-05-07T09:47:52.162Z,6684.00
2019-05-07T09:48:52.256Z,6500.00
2019-05-07T09:50:04.654Z,6416.00
2019-05-07T09:51:54.328Z,7020.00
2019-05-07T09:52:54.287Z,7268.00
2019-05-07T09:54:58.154Z,7716.00
2019-05-07T09:55:58.067Z,8040.00
2019-05-07T09:56:57.983Z,8400.00
2019-05-07T09:57:57.901Z,8776.00
2019-05-07T09:58:57.823Z,9024.00
2019-05-07T09:59:57.744Z,9068.00
2019-05-07T10:00:57.664Z,9104.00
2019-05-07T10:01:57.582Z,9132.00
2019-05-07T10:02:57.503Z,9040.00
2019-05-07T10:03:57.421Z,8840.00
2019-05-07T10:04:57.359Z,8924.00
2019-05-07T10:05:57.262Z,9024.00
2019-05-07T10:06:57.183Z,9068.00
2019-05-07T10:07:57.103Z,9128.00
2019-05-07T10:08:57.019Z,8736.00
2019-05-07T10:09:56.940Z,8860.00
2019-05-07T10:10:56.870Z,9380.00
2019-05-07T10:11:56.780Z,9780.00
2019-05-07T10:12:56.701Z,9956.00
2019-05-07T10:13:56.624Z,9980.00
2019-05-07T10:14:56.542Z,10040.00
2019-05-07T10:15:56.484Z,10040.00
2019-05-07T10:16:56.385Z,9864.00
2019-05-07T10:17:56.303Z,9296.00
2019-05-07T10:18:56.222Z,8872.00
2019-05-07T10:19:56.140Z,8840.00
2019-05-07T10:20:56.065Z,9164.00
2019-05-07T10:21:55.985Z,9504.00
2019-05-07T10:22:55.905Z,9888.00
2019-05-07T10:23:55.827Z,10104.00
2019-05-07T10:24:55.745Z,10408.00
2019-05-07T10:25:55.667Z,9452.00
2019-05-07T10:26:55.698Z,8724.00
2019-05-07T10:27:55.511Z,7860.00
2019-05-07T10:28:55.431Z,7312.00
2019-05-07T10:29:55.454Z,6932.00
2019-05-07T10:30:55.270Z,6628.00
2019-05-07T10:31:55.190Z,6492.00
2019-05-07T10:32:55.113Z,6260.00
2019-05-07T10:33:55.035Z,5932.00
2019-05-07T10:34:54.956Z,5572.00
2019-05-07T10:35:54.874Z,5304.00
2019-05-07T10:36:54.807Z,5196.00
2019-05-07T10:37:54.718Z,5164.00
2019-05-07T10:38:54.630Z,5184.00
2019-05-07T10:39:54.557Z,5180.00
2019-05-07T10:40:54.476Z,5132.00
2019-05-07T10:41:54.398Z,5028.00
2019-05-07T10:42:54.319Z,4912.00
2019-05-07T10:43:54.241Z,4772.00
2019-05-07T10:44:54.158Z,4852.00
2019-05-07T10:45:54.084Z,4764.00
2019-05-07T10:46:54.001Z,4604.00
2019-05-07T10:47:53.926Z,4416.00
2019-05-07T10:48:53.852Z,4244.00
2019-05-07T10:49:53.764Z,4060.00
2019-05-07T10:50:53.682Z,3972.00
2019-05-07T10:51:53.605Z,3916.00
2019-05-07T10:52:53.522Z,3880.00
2019-05-07T10:53:53.544Z,3860.00
2019-05-07T10:54:59.695Z,3832.00
2019-05-07T10:55:53.386Z,3816.00
2019-05-07T10:56:53.201Z,3832.00
2019-05-07T10:57:53.120Z,3980.00
2019-05-07T10:58:53.039Z,4108.00
2019-05-07T10:59:52.961Z,4200.00
2019-05-07T11:00:52.881Z,4280.00
2019-05-07T11:01:52.800Z,4344.00
2019-05-07T11:02:52.715Z,4380.00
2019-05-07T11:03:52.638Z,4336.00
2019-05-07T11:04:53.186Z,4128.00
2019-05-07T11:05:52.476Z,3760.00
2019-05-07T11:06:52.464Z,3632.00
2019-05-07T11:07:53.897Z,3672.00
2019-05-07T11:08:52.272Z,3844.00
2019-05-07T11:09:52.578Z,3912.00
2019-05-07T11:10:52.280Z,3864.00
2019-05-07T11:11:52.098Z,3868.00
2019-05-07T11:12:51.925Z,4008.00
2019-05-07T11:13:55.536Z,4244.00
2019-05-07T11:14:51.763Z,4492.00
2019-05-07T11:15:51.834Z,4632.00
2019-05-07T11:16:52.168Z,4788.00
2019-05-07T11:17:52.082Z,5012.00
2019-05-07T11:18:51.875Z,5264.00
2019-05-07T11:19:51.356Z,5692.00
2019-05-07T11:20:53.470Z,6196.00
2019-05-07T11:21:52.106Z,6784.00
2019-05-07T11:22:52.229Z,7336.00
2019-05-07T11:23:52.204Z,7940.00
2019-05-07T11:24:52.236Z,8420.00
2019-05-07T11:25:52.682Z,8764.00
2019-05-07T11:26:51.297Z,8732.00
2019-05-07T11:27:52.364Z,8832.00
2019-05-07T11:28:50.634Z,8772.00
2019-05-07T11:29:50.549Z,9056.00
2019-05-07T11:30:50.474Z,9552.00
2019-05-07T11:31:52.416Z,9760.00
2019-05-07T11:32:52.242Z,9932.00
2019-05-07T11:33:52.028Z,10172.00
2019-05-07T11:34:50.155Z,10900.00
2019-05-07T11:35:50.073Z,11492.00
2019-05-07T11:36:52.274Z,12048.00
2019-05-07T11:37:51.958Z,12376.00
2019-05-07T11:38:49.836Z,13072.00
2019-05-07T11:39:49.761Z,12476.00
2019-05-07T11:40:51.673Z,11920.00
2019-05-07T11:41:51.325Z,11808.00
2019-05-07T11:42:51.601Z,11348.00
2019-05-07T11:43:49.439Z,10904.00
2019-05-07T11:44:49.360Z,10500.00
2019-05-07T11:45:49.280Z,10636.00
2019-05-07T11:46:49.205Z,12116.00
2019-05-07T11:47:49.124Z,12376.00
2019-05-07T11:48:49.045Z,13944.00
2019-05-07T11:49:48.968Z,16464.00
2019-05-07T11:51:00.428Z,12152.00
2019-05-07T11:51:48.815Z,11048.00
2019-05-07T11:52:48.732Z,9584.00
2019-05-07T11:53:48.666Z,8824.00
2019-05-07T11:54:48.579Z,8128.00
2019-05-07T11:55:48.511Z,7576.00
2019-05-07T11:56:48.416Z,7120.00
2019-05-07T11:57:48.342Z,6748.00
2019-05-07T11:58:50.652Z,6588.00
2019-05-07T11:59:48.187Z,6648.00
2019-05-07T12:00:48.109Z,6768.00
2019-05-07T12:01:48.253Z,6712.00
2019-05-07T12:02:47.954Z,6596.00
2019-05-07T12:03:47.873Z,6660.00
2019-05-07T12:04:47.795Z,6944.00
2019-05-07T12:05:47.717Z,7412.00
2019-05-07T12:06:47.640Z,8172.00
2019-05-07T12:07:47.558Z,8692.00
2019-05-07T12:08:51.794Z,9248.00
2019-05-07T12:09:47.403Z,9752.00
2019-05-07T12:10:47.326Z,11624.00
2019-05-07T12:11:47.250Z,16584.00
2019-05-07T12:12:47.168Z,15900.00
2019-05-07T12:13:47.089Z,22752.00
2019-05-07T12:14:47.010Z,19168.00
2019-05-07T12:15:46.935Z,49280.00
2019-05-07T12:16:46.855Z,101216.00
2019-05-07T12:17:46.779Z,101408.00
2019-05-07T12:18:46.701Z,20192.00
2019-05-07T12:19:46.625Z,76736.00
2019-05-07T12:20:46.549Z,21664.00
2019-05-07T12:21:46.476Z,12900.00
2019-05-07T12:22:46.404Z,10000.00
2019-05-07T12:23:46.331Z,9360.00
2019-05-07T12:24:46.254Z,8592.00
2019-05-07T12:25:46.181Z,8088.00
2019-05-07T12:26:46.109Z,8252.00
2019-05-07T12:27:46.035Z,8532.00
2019-05-07T12:28:45.961Z,9004.00
2019-05-07T12:29:45.887Z,9608.00
2019-05-07T12:30:45.811Z,11464.00
2019-05-07T12:31:45.746Z,11372.00
2019-05-07T12:32:45.665Z,12384.00
2019-05-07T12:33:45.587Z,11660.00
2019-05-07T12:34:45.513Z,10132.00
2019-05-07T12:35:45.435Z,9872.00
2019-05-07T12:36:45.362Z,11116.00
2019-05-07T12:37:47.859Z,17952.00
2019-05-07T12:38:45.213Z,80960.00
2019-05-07T12:39:45.135Z,52992.00
2019-05-07T12:40:45.063Z,19968.00
2019-05-07T12:41:44.986Z,15152.00
2019-05-07T12:42:45.646Z,17088.00
2019-05-07T12:43:44.843Z,54272.00
2019-05-07T12:44:44.763Z,11036.00
2019-05-07T12:45:44.689Z,9904.00
2019-05-07T12:46:44.616Z,10324.00
2019-05-07T12:47:44.563Z,10384.00
2019-05-07T12:48:44.470Z,11000.00
2019-05-07T12:49:44.401Z,9896.00
2019-05-07T12:50:44.321Z,8720.00
2019-05-07T12:51:44.247Z,7840.00
2019-05-07T12:52:44.177Z,7420.00
2019-05-07T12:53:44.099Z,7444.00
2019-05-07T12:54:44.021Z,7724.00
2019-05-07T12:55:43.946Z,8076.00
2019-05-07T12:56:43.871Z,8000.00
2019-05-07T12:57:43.798Z,7636.00
2019-05-07T12:58:43.721Z,7304.00
2019-05-07T12:59:43.644Z,7060.00
2019-05-07T13:00:43.572Z,7012.00
2019-05-07T13:01:43.497Z,7296.00
2019-05-07T13:02:44.310Z,7528.00
2019-05-07T13:03:43.343Z,7828.00
2019-05-07T13:04:43.265Z,8252.00
2019-05-07T13:05:43.188Z,8580.00
2019-05-07T13:06:43.111Z,25792.00
2019-05-07T13:07:43.035Z,8680.00
2019-05-07T13:08:42.962Z,7788.00
2019-05-07T13:09:42.902Z,7584.00
2019-05-07T13:10:42.989Z,7292.00
2019-05-07T13:11:42.729Z,7288.00
2019-05-07T13:12:42.653Z,7476.00
2019-05-07T13:13:42.577Z,7712.00
2019-05-07T13:14:42.501Z,7856.00
2019-05-07T13:15:43.381Z,7976.00
2019-05-07T13:16:42.344Z,8140.00
2019-05-07T13:17:42.270Z,8396.00
2019-05-07T13:18:42.366Z,8392.00
2019-05-07T13:19:42.151Z,8216.00
2019-05-07T13:20:42.038Z,8028.00
2019-05-07T13:21:49.203Z,8220.00
2019-05-07T13:22:42.743Z,8536.00
2019-05-07T13:23:42.253Z,9000.00
2019-05-07T13:24:42.572Z,9432.00
2019-05-07T13:25:42.984Z,9968.00
2019-05-07T13:26:42.768Z,11004.00
2019-05-07T13:27:42.889Z,11740.00
2019-05-07T13:28:41.983Z,12364.00
2019-05-07T13:29:42.489Z,12580.00
2019-05-07T13:30:43.601Z,12040.00
2019-05-07T13:31:41.197Z,11212.00
2019-05-07T13:32:41.930Z,11632.00
2019-05-07T13:33:42.115Z,13296.00
2019-05-07T13:34:42.559Z,14664.00
2019-05-07T13:35:42.312Z,12636.00
2019-05-07T13:36:40.802Z,11364.00
2019-05-07T13:37:41.815Z,9740.00
2019-05-07T13:38:42.569Z,8404.00
2019-05-07T13:39:42.813Z,6956.00
2019-05-07T13:40:42.320Z,6340.00
2019-05-07T13:41:40.417Z,6144.00
2019-05-07T13:42:41.975Z,5616.00
2019-05-07T13:43:40.281Z,5280.00
2019-05-07T13:44:40.186Z,5104.00
2019-05-07T13:45:41.676Z,4664.00
2019-05-07T13:46:42.119Z,4352.00
2019-05-07T13:47:39.954Z,4352.00
2019-05-07T13:48:39.890Z,4280.00
2019-05-07T13:49:39.797Z,4288.00
2019-05-07T13:50:41.874Z,4532.00
2019-05-07T13:51:41.670Z,5012.00
2019-05-07T13:52:39.566Z,5612.00
2019-05-07T13:53:39.488Z,6148.00
2019-05-07T13:54:39.413Z,6248.00
2019-05-07T13:55:39.333Z,6604.00
2019-05-07T13:56:39.255Z,7576.00
2019-05-07T13:57:39.178Z,8000.00
2019-05-07T13:58:39.098Z,8260.00
2019-05-07T13:59:39.018Z,8968.00
2019-05-07T14:00:38.943Z,9904.00
2019-05-07T14:01:38.865Z,10724.00
2019-05-07T14:02:38.782Z,11816.00
2019-05-07T14:03:38.708Z,15052.00
2019-05-07T14:04:38.632Z,68064.00
2019-05-07T14:05:38.553Z,55552.00
2019-05-07T14:06:38.481Z,24064.00
2019-05-07T14:07:38.399Z,20512.00
2019-05-07T14:08:38.321Z,14680.00
2019-05-07T14:09:38.244Z,11724.00